North Brunswick, New Jersey
Current Conditions -  °F | °C
As of 1:02 PM on Monday 22 Dec 2014 (Local Time) from KSMQ Reporting Station
Haze Haze  
Wind Chill: 37°   Ceiling: 1000
Heat Index: 40°   Visibility: 5mi
Dew Point: 34°   Wind: 5mph
Humidity: 79%   Direction: 20°NNE
Pressure: 30.23"   Gusts: NA
Location:  40.45°N, 74.48°W
Report Text: KSMQ 221802Z AUTO 02004KT 5SM HZ OVC010 04/01 A3023 RMK AO2 T00440011
Loading
Personal Weather Stations






























Interactive Weather Map New forecast layout! Learn more

10-Day Weather Forecast

Advertisements
Track Severe Weather on mobile